sensor_id;sensor_type;location;lat;lon;timestamp;P1;durP1;ratioP1;P2;durP2;ratioP2
5742;SDS011;2896;53.500;10.020;2023-05-10T00:01:57;5.93;;;4.63;;
5742;SDS011;2896;53.500;10.020;2023-05-10T00:04:23;7.23;;;5.00;;
5742;SDS011;2896;53.500;10.020;2023-05-10T00:06:52;12.40;;;5.33;;
5742;SDS011;2896;53.500;10.020;2023-05-10T00:09:18;5.03;;;4.53;;
5742;SDS011;2896;53.500;10.020;2023-05-10T00:11:45;4.50;;;4.20;;
5742;SDS011;2896;53.500;10.020;2023-05-10T00:14:13;7.80;;;4.80;;
5742;SDS011;2896;53.500;10.020;2023-05-10T00:16:39;7.67;;;4.70;;
5742;SDS011;2896;53.500;10.020;2023-05-10T00:19:06;8.73;;;4.97;;
5742;SDS011;2896;53.500;10.020;2023-05-10T00:21:33;6.20;;;5.00;;
5742;SDS011;2896;53.500;10.020;2023-05-10T00:23:59;7.80;;;4.20;;
5742;SDS011;2896;53.500;10.020;2023-05-10T00:26:26;5.13;;;4.63;;
5742;SDS011;2896;53.500;10.020;2023-05-10T00:28:53;7.60;;;4.60;;
5742;SDS011;2896;53.500;10.020;2023-05-10T00:31:21;21.63;;;4.70;;
5742;SDS011;2896;53.500;10.020;2023-05-10T00:33:47;5.50;;;5.00;;
5742;SDS011;2896;53.500;10.020;2023-05-10T00:36:14;5.70;;;5.30;;
5742;SDS011;2896;53.500;10.020;2023-05-10T00:38:40;5.83;;;4.90;;
5742;SDS011;2896;53.500;10.020;2023-05-10T00:41:07;5.47;;;5.00;;
5742;SDS011;2896;53.500;10.020;2023-05-10T00:43:33;8.13;;;5.50;;
5742;SDS011;2896;53.500;10.020;2023-05-10T00:46:00;7.60;;;4.97;;
5742;SDS011;2896;53.500;10.020;2023-05-10T00:48:29;4.90;;;4.50;;
5742;SDS011;2896;53.500;10.020;2023-05-10T00:50:56;5.77;;;5.33;;
5742;SDS011;2896;53.500;10.020;2023-05-10T00:53:22;6.63;;;4.47;;
5742;SDS011;2896;53.500;10.020;2023-05-10T00:55:50;6.20;;;4.83;;
5742;SDS011;2896;53.500;10.020;2023-05-10T00:58:17;11.10;;;5.40;;
5742;SDS011;2896;53.500;10.020;2023-05-10T01:00:43;5.37;;;4.97;;
5742;SDS011;2896;53.500;10.020;2023-05-10T01:03:13;5.20;;;4.70;;
5742;SDS011;2896;53.500;10.020;2023-05-10T01:05:41;5.40;;;4.97;;
5742;SDS011;2896;53.500;10.020;2023-05-10T01:08:07;8.03;;;5.70;;
5742;SDS011;2896;53.500;10.020;2023-05-10T01:10:34;4.67;;;4.27;;
5742;SDS011;2896;53.500;10.020;2023-05-10T01:13:01;7.73;;;6.20;;
5742;SDS011;2896;53.500;10.020;2023-05-10T01:15:28;6.23;;;5.73;;
5742;SDS011;2896;53.500;10.020;2023-05-10T01:17:55;5.50;;;4.63;;
5742;SDS011;2896;53.500;10.020;2023-05-10T01:20:22;6.90;;;5.27;;
5742;SDS011;2896;53.500;10.020;2023-05-10T01:25:57;7.80;;;4.60;;
5742;SDS011;2896;53.500;10.020;2023-05-10T01:32:12;10.23;;;5.70;;
5742;SDS011;2896;53.500;10.020;2023-05-10T01:34:46;11.50;;;5.00;;
5742;SDS011;2896;53.500;10.020;2023-05-10T01:37:20;9.83;;;5.70;;
5742;SDS011;2896;53.500;10.020;2023-05-10T01:39:49;7.40;;;5.60;;
5742;SDS011;2896;53.500;10.020;2023-05-10T01:42:21;5.23;;;4.87;;
5742;SDS011;2896;53.500;10.020;2023-05-10T01:44:54;5.50;;;5.10;;
5742;SDS011;2896;53.500;10.020;2023-05-10T01:47:29;5.70;;;5.20;;
5742;SDS011;2896;53.500;10.020;2023-05-10T01:50:02;6.80;;;5.17;;
5742;SDS011;2896;53.500;10.020;2023-05-10T01:52:32;5.50;;;5.00;;
5742;SDS011;2896;53.500;10.020;2023-05-10T01:55:05;6.60;;;5.40;;
5742;SDS011;2896;53.500;10.020;2023-05-10T01:57:35;7.27;;;5.50;;
5742;SDS011;2896;53.500;10.020;2023-05-10T02:00:04;6.23;;;5.63;;
5742;SDS011;2896;53.500;10.020;2023-05-10T02:02:36;8.60;;;5.60;;
5742;SDS011;2896;53.500;10.020;2023-05-10T02:05:05;6.00;;;5.47;;
5742;SDS011;2896;53.500;10.020;2023-05-10T02:07:33;8.60;;;5.87;;
5742;SDS011;2896;53.500;10.020;2023-05-10T02:10:02;8.17;;;5.50;;
5742;SDS011;2896;53.500;10.020;2023-05-10T02:12:30;6.47;;;5.87;;
5742;SDS011;2896;53.500;10.020;2023-05-10T02:15:01;5.37;;;4.70;;
5742;SDS011;2896;53.500;10.020;2023-05-10T02:17:30;8.13;;;5.63;;
5742;SDS011;2896;53.500;10.020;2023-05-10T02:19:59;6.27;;;5.70;;
5742;SDS011;2896;53.500;10.020;2023-05-10T02:22:28;6.53;;;5.97;;
5742;SDS011;2896;53.500;10.020;2023-05-10T02:24:55;7.30;;;5.20;;
5742;SDS011;2896;53.500;10.020;2023-05-10T02:27:25;8.30;;;5.40;;
5742;SDS011;2896;53.500;10.020;2023-05-10T02:29:54;6.97;;;5.43;;
5742;SDS011;2896;53.500;10.020;2023-05-10T02:32:21;8.43;;;5.70;;
5742;SDS011;2896;53.500;10.020;2023-05-10T02:34:48;6.60;;;5.97;;
5742;SDS011;2896;53.500;10.020;2023-05-10T02:37:18;12.23;;;5.37;;
5742;SDS011;2896;53.500;10.020;2023-05-10T02:39:45;11.60;;;5.70;;
5742;SDS011;2896;53.500;10.020;2023-05-10T02:42:13;8.17;;;5.57;;
5742;SDS011;2896;53.500;10.020;2023-05-10T02:44:44;7.07;;;5.67;;
5742;SDS011;2896;53.500;10.020;2023-05-10T02:47:13;8.00;;;5.67;;
5742;SDS011;2896;53.500;10.020;2023-05-10T02:49:40;5.63;;;5.13;;
5742;SDS011;2896;53.500;10.020;2023-05-10T02:52:07;7.40;;;5.70;;
5742;SDS011;2896;53.500;10.020;2023-05-10T02:54:39;6.40;;;5.80;;
5742;SDS011;2896;53.500;10.020;2023-05-10T02:57:10;7.13;;;5.80;;
5742;SDS011;2896;53.500;10.020;2023-05-10T02:59:40;12.10;;;5.90;;
5742;SDS011;2896;53.500;10.020;2023-05-10T03:02:09;9.13;;;5.80;;
5742;SDS011;2896;53.500;10.020;2023-05-10T03:04:37;6.13;;;5.53;;
5742;SDS011;2896;53.500;10.020;2023-05-10T03:07:04;8.03;;;5.93;;
5742;SDS011;2896;53.500;10.020;2023-05-10T03:09:31;11.80;;;6.10;;
5742;SDS011;2896;53.500;10.020;2023-05-10T03:12:02;10.70;;;5.70;;
5742;SDS011;2896;53.500;10.020;2023-05-10T03:14:37;11.60;;;6.27;;
5742;SDS011;2896;53.500;10.020;2023-05-10T03:17:11;7.90;;;5.60;;
5742;SDS011;2896;53.500;10.020;2023-05-10T03:19:45;12.43;;;5.53;;
5742;SDS011;2896;53.500;10.020;2023-05-10T03:22:20;5.97;;;5.40;;
5742;SDS011;2896;53.500;10.020;2023-05-10T03:24:52;6.37;;;5.77;;
5742;SDS011;2896;53.500;10.020;2023-05-10T03:27:22;6.87;;;5.60;;
5742;SDS011;2896;53.500;10.020;2023-05-10T03:29:51;9.83;;;6.03;;
5742;SDS011;2896;53.500;10.020;2023-05-10T03:32:19;10.43;;;6.00;;
5742;SDS011;2896;53.500;10.020;2023-05-10T03:34:46;8.43;;;6.33;;
5742;SDS011;2896;53.500;10.020;2023-05-10T03:37:12;6.70;;;5.43;;
5742;SDS011;2896;53.500;10.020;2023-05-10T03:39:39;9.07;;;5.53;;
5742;SDS011;2896;53.500;10.020;2023-05-10T03:42:05;9.50;;;5.70;;
5742;SDS011;2896;53.500;10.020;2023-05-10T03:44:34;6.20;;;5.70;;
5742;SDS011;2896;53.500;10.020;2023-05-10T03:47:00;9.73;;;5.53;;
5742;SDS011;2896;53.500;10.020;2023-05-10T03:49:27;6.97;;;5.63;;
5742;SDS011;2896;53.500;10.020;2023-05-10T03:51:53;8.90;;;5.77;;
5742;SDS011;2896;53.500;10.020;2023-05-10T03:54:20;6.93;;;6.27;;
5742;SDS011;2896;53.500;10.020;2023-05-10T03:56:46;12.23;;;5.70;;
5742;SDS011;2896;53.500;10.020;2023-05-10T03:59:13;7.67;;;5.57;;
5742;SDS011;2896;53.500;10.020;2023-05-10T04:01:41;9.20;;;6.43;;
5742;SDS011;2896;53.500;10.020;2023-05-10T04:04:08;7.03;;;5.80;;
5742;SDS011;2896;53.500;10.020;2023-05-10T04:06:35;13.90;;;5.80;;
5742;SDS011;2896;53.500;10.020;2023-05-10T04:09:01;9.13;;;5.30;;
5742;SDS011;2896;53.500;10.020;2023-05-10T04:11:29;6.17;;;5.50;;
5742;SDS011;2896;53.500;10.020;2023-05-10T04:13:56;9.87;;;5.90;;
5742;SDS011;2896;53.500;10.020;2023-05-10T04:16:22;11.00;;;5.90;;
5742;SDS011;2896;53.500;10.020;2023-05-10T04:18:50;8.73;;;6.00;;
5742;SDS011;2896;53.500;10.020;2023-05-10T04:21:17;10.70;;;5.63;;
5742;SDS011;2896;53.500;10.020;2023-05-10T04:23:44;8.27;;;5.87;;
5742;SDS011;2896;53.500;10.020;2023-05-10T04:26:10;7.00;;;5.53;;
5742;SDS011;2896;53.500;10.020;2023-05-10T04:28:37;16.43;;;5.60;;
5742;SDS011;2896;53.500;10.020;2023-05-10T04:31:04;6.10;;;5.60;;
5742;SDS011;2896;53.500;10.020;2023-05-10T04:33:31;10.57;;;5.80;;
5742;SDS011;2896;53.500;10.020;2023-05-10T04:36:00;12.63;;;5.60;;
5742;SDS011;2896;53.500;10.020;2023-05-10T04:38:27;10.90;;;5.50;;
5742;SDS011;2896;53.500;10.020;2023-05-10T04:40:53;6.80;;;5.57;;
5742;SDS011;2896;53.500;10.020;2023-05-10T04:43:20;7.50;;;6.07;;
5742;SDS011;2896;53.500;10.020;2023-05-10T04:45:47;10.70;;;6.23;;
5742;SDS011;2896;53.500;10.020;2023-05-10T04:48:15;6.23;;;5.67;;
5742;SDS011;2896;53.500;10.020;2023-05-10T04:50:41;13.20;;;6.57;;
5742;SDS011;2896;53.500;10.020;2023-05-10T04:53:09;5.80;;;5.30;;
5742;SDS011;2896;53.500;10.020;2023-05-10T04:55:36;6.23;;;5.63;;
5742;SDS011;2896;53.500;10.020;2023-05-10T04:58:03;5.93;;;5.27;;
5742;SDS011;2896;53.500;10.020;2023-05-10T05:00:30;6.33;;;5.73;;
5742;SDS011;2896;53.500;10.020;2023-05-10T05:02:57;6.67;;;5.97;;
5742;SDS011;2896;53.500;10.020;2023-05-10T05:05:23;7.17;;;6.30;;
5742;SDS011;2896;53.500;10.020;2023-05-10T05:07:50;11.13;;;6.40;;
5742;SDS011;2896;53.500;10.020;2023-05-10T05:10:18;8.70;;;5.40;;
5742;SDS011;2896;53.500;10.020;2023-05-10T05:12:45;9.20;;;6.10;;
5742;SDS011;2896;53.500;10.020;2023-05-10T05:15:11;6.27;;;5.67;;
5742;SDS011;2896;53.500;10.020;2023-05-10T05:17:38;9.53;;;6.10;;
5742;SDS011;2896;53.500;10.020;2023-05-10T05:20:05;6.50;;;5.90;;
5742;SDS011;2896;53.500;10.020;2023-05-10T05:22:33;8.63;;;6.40;;
5742;SDS011;2896;53.500;10.020;2023-05-10T05:24:59;6.53;;;5.50;;
5742;SDS011;2896;53.500;10.020;2023-05-10T05:27:28;7.27;;;5.70;;
5742;SDS011;2896;53.500;10.020;2023-05-10T05:29:55;6.17;;;5.67;;
5742;SDS011;2896;53.500;10.020;2023-05-10T05:32:22;6.63;;;6.03;;
5742;SDS011;2896;53.500;10.020;2023-05-10T05:34:49;10.37;;;5.80;;
5742;SDS011;2896;53.500;10.020;2023-05-10T05:37:16;14.70;;;6.40;;
5742;SDS011;2896;53.500;10.020;2023-05-10T05:39:44;7.83;;;6.10;;
5742;SDS011;2896;53.500;10.020;2023-05-10T05:42:11;7.10;;;6.00;;
5742;SDS011;2896;53.500;10.020;2023-05-10T05:44:40;6.40;;;5.83;;
5742;SDS011;2896;53.500;10.020;2023-05-10T05:47:07;17.10;;;5.40;;
5742;SDS011;2896;53.500;10.020;2023-05-10T05:49:34;10.47;;;6.20;;
5742;SDS011;2896;53.500;10.020;2023-05-10T05:52:01;5.80;;;5.30;;
5742;SDS011;2896;53.500;10.020;2023-05-10T05:54:29;11.40;;;5.53;;
5742;SDS011;2896;53.500;10.020;2023-05-10T05:56:56;6.77;;;5.20;;
5742;SDS011;2896;53.500;10.020;2023-05-10T05:59:26;14.43;;;5.83;;
5742;SDS011;2896;53.500;10.020;2023-05-10T06:01:54;18.00;;;6.23;;
5742;SDS011;2896;53.500;10.020;2023-05-10T06:04:21;12.57;;;5.60;;
5742;SDS011;2896;53.500;10.020;2023-05-10T06:06:47;11.63;;;6.20;;
5742;SDS011;2896;53.500;10.020;2023-05-10T06:09:14;5.53;;;5.03;;
5742;SDS011;2896;53.500;10.020;2023-05-10T06:11:41;5.57;;;5.10;;
5742;SDS011;2896;53.500;10.020;2023-05-10T06:14:07;7.80;;;5.30;;
5742;SDS011;2896;53.500;10.020;2023-05-10T06:16:34;13.43;;;5.00;;
5742;SDS011;2896;53.500;10.020;2023-05-10T06:19:02;7.67;;;5.17;;
5742;SDS011;2896;53.500;10.020;2023-05-10T06:21:29;6.37;;;5.40;;
5742;SDS011;2896;53.500;10.020;2023-05-10T06:23:56;5.93;;;5.23;;
5742;SDS011;2896;53.500;10.020;2023-05-10T06:26:22;6.93;;;5.23;;
5742;SDS011;2896;53.500;10.020;2023-05-10T06:28:49;7.83;;;5.90;;
5742;SDS011;2896;53.500;10.020;2023-05-10T06:31:16;8.10;;;5.70;;
5742;SDS011;2896;53.500;10.020;2023-05-10T06:33:43;12.10;;;6.30;;
5742;SDS011;2896;53.500;10.020;2023-05-10T06:36:11;10.13;;;5.20;;
5742;SDS011;2896;53.500;10.020;2023-05-10T06:38:38;5.77;;;5.27;;
5742;SDS011;2896;53.500;10.020;2023-05-10T06:41:04;5.83;;;5.43;;
5742;SDS011;2896;53.500;10.020;2023-05-10T06:43:31;5.97;;;5.07;;
5742;SDS011;2896;53.500;10.020;2023-05-10T06:45:58;5.80;;;5.30;;
5742;SDS011;2896;53.500;10.020;2023-05-10T06:48:24;10.33;;;5.83;;
5742;SDS011;2896;53.500;10.020;2023-05-10T06:50:51;9.93;;;5.87;;
5742;SDS011;2896;53.500;10.020;2023-05-10T06:53:19;7.80;;;6.10;;
5742;SDS011;2896;53.500;10.020;2023-05-10T06:55:45;6.10;;;5.60;;
5742;SDS011;2896;53.500;10.020;2023-05-10T06:58:12;6.20;;;5.70;;
5742;SDS011;2896;53.500;10.020;2023-05-10T07:00:39;7.03;;;4.83;;
5742;SDS011;2896;53.500;10.020;2023-05-10T07:03:07;6.67;;;4.80;;
5742;SDS011;2896;53.500;10.020;2023-05-10T07:05:34;10.30;;;6.03;;
5742;SDS011;2896;53.500;10.020;2023-05-10T07:08:01;5.57;;;5.17;;
5742;SDS011;2896;53.500;10.020;2023-05-10T07:10:29;13.63;;;5.33;;
5742;SDS011;2896;53.500;10.020;2023-05-10T07:12:56;5.40;;;5.00;;
5742;SDS011;2896;53.500;10.020;2023-05-10T07:15:22;5.73;;;5.23;;
5742;SDS011;2896;53.500;10.020;2023-05-10T07:17:49;8.40;;;5.40;;
5742;SDS011;2896;53.500;10.020;2023-05-10T07:20:16;15.57;;;5.33;;
5742;SDS011;2896;53.500;10.020;2023-05-10T07:22:43;5.80;;;5.23;;
5742;SDS011;2896;53.500;10.020;2023-05-10T07:25:10;5.70;;;5.20;;
5742;SDS011;2896;53.500;10.020;2023-05-10T07:27:38;13.70;;;4.17;;
5742;SDS011;2896;53.500;10.020;2023-05-10T07:30:05;9.80;;;4.80;;
5742;SDS011;2896;53.500;10.020;2023-05-10T07:32:33;17.10;;;5.57;;
5742;SDS011;2896;53.500;10.020;2023-05-10T07:34:59;5.00;;;4.60;;
5742;SDS011;2896;53.500;10.020;2023-05-10T07:37:26;5.50;;;5.00;;
5742;SDS011;2896;53.500;10.020;2023-05-10T07:39:52;5.30;;;4.90;;
5742;SDS011;2896;53.500;10.020;2023-05-10T07:42:19;8.80;;;4.70;;
5742;SDS011;2896;53.500;10.020;2023-05-10T07:44:47;5.50;;;5.10;;
5742;SDS011;2896;53.500;10.020;2023-05-10T07:47:13;5.97;;;5.37;;
5742;SDS011;2896;53.500;10.020;2023-05-10T07:49:40;6.20;;;5.13;;
5742;SDS011;2896;53.500;10.020;2023-05-10T07:52:07;6.17;;;5.40;;
5742;SDS011;2896;53.500;10.020;2023-05-10T07:54:33;6.00;;;5.50;;
5742;SDS011;2896;53.500;10.020;2023-05-10T07:57:00;5.60;;;5.07;;
5742;SDS011;2896;53.500;10.020;2023-05-10T07:59:26;7.27;;;5.43;;
5742;SDS011;2896;53.500;10.020;2023-05-10T08:01:55;5.53;;;5.03;;
5742;SDS011;2896;53.500;10.020;2023-05-10T08:04:21;16.70;;;5.00;;
5742;SDS011;2896;53.500;10.020;2023-05-10T08:06:48;6.10;;;5.10;;
5742;SDS011;2896;53.500;10.020;2023-05-10T08:09:14;5.20;;;4.80;;
5742;SDS011;2896;53.500;10.020;2023-05-10T08:11:42;9.77;;;4.93;;
5742;SDS011;2896;53.500;10.020;2023-05-10T08:14:09;5.40;;;5.00;;
5742;SDS011;2896;53.500;10.020;2023-05-10T08:16:35;13.73;;;4.90;;
5742;SDS011;2896;53.500;10.020;2023-05-10T08:19:03;4.77;;;4.47;;
5742;SDS011;2896;53.500;10.020;2023-05-10T08:21:30;7.30;;;5.40;;
5742;SDS011;2896;53.500;10.020;2023-05-10T08:23:57;8.13;;;5.10;;
5742;SDS011;2896;53.500;10.020;2023-05-10T08:26:23;5.30;;;4.90;;
5742;SDS011;2896;53.500;10.020;2023-05-10T08:28:50;15.47;;;5.20;;
5742;SDS011;2896;53.500;10.020;2023-05-10T08:31:17;6.40;;;5.13;;
5742;SDS011;2896;53.500;10.020;2023-05-10T08:33:44;5.80;;;5.00;;
5742;SDS011;2896;53.500;10.020;2023-05-10T08:36:12;5.40;;;5.00;;
5742;SDS011;2896;53.500;10.020;2023-05-10T08:38:44;6.17;;;5.57;;
5742;SDS011;2896;53.500;10.020;2023-05-10T08:41:11;5.53;;;5.03;;
5742;SDS011;2896;53.500;10.020;2023-05-10T08:43:37;5.00;;;4.70;;
5742;SDS011;2896;53.500;10.020;2023-05-10T08:46:06;5.33;;;4.93;;
5742;SDS011;2896;53.500;10.020;2023-05-10T08:48:35;6.10;;;5.00;;
5742;SDS011;2896;53.500;10.020;2023-05-10T08:51:03;5.30;;;4.90;;
5742;SDS011;2896;53.500;10.020;2023-05-10T08:53:32;8.00;;;4.90;;
5742;SDS011;2896;53.500;10.020;2023-05-10T08:56:01;5.60;;;5.03;;
5742;SDS011;2896;53.500;10.020;2023-05-10T08:58:29;5.63;;;5.10;;
5742;SDS011;2896;53.500;10.020;2023-05-10T09:00:56;10.70;;;5.50;;
5742;SDS011;2896;53.500;10.020;2023-05-10T09:03:23;6.47;;;5.80;;
5742;SDS011;2896;53.500;10.020;2023-05-10T09:05:50;6.43;;;5.63;;
5742;SDS011;2896;53.500;10.020;2023-05-10T09:08:17;6.27;;;5.50;;
5742;SDS011;2896;53.500;10.020;2023-05-10T09:10:45;6.33;;;5.70;;
5742;SDS011;2896;53.500;10.020;2023-05-10T09:13:12;8.33;;;5.47;;
5742;SDS011;2896;53.500;10.020;2023-05-10T09:15:41;10.37;;;5.40;;
5742;SDS011;2896;53.500;10.020;2023-05-10T09:18:07;5.20;;;4.90;;
5742;SDS011;2896;53.500;10.020;2023-05-10T09:20:34;6.20;;;5.60;;
5742;SDS011;2896;53.500;10.020;2023-05-10T09:23:01;6.10;;;4.53;;
5742;SDS011;2896;53.500;10.020;2023-05-10T09:25:27;5.93;;;5.43;;
5742;SDS011;2896;53.500;10.020;2023-05-10T09:27:56;7.70;;;5.70;;
5742;SDS011;2896;53.500;10.020;2023-05-10T09:30:26;5.60;;;4.60;;
5742;SDS011;2896;53.500;10.020;2023-05-10T09:32:53;5.70;;;5.20;;
5742;SDS011;2896;53.500;10.020;2023-05-10T09:35:21;7.37;;;6.30;;
5742;SDS011;2896;53.500;10.020;2023-05-10T09:37:50;6.43;;;5.83;;
5742;SDS011;2896;53.500;10.020;2023-05-10T09:40:19;12.90;;;6.07;;
5742;SDS011;2896;53.500;10.020;2023-05-10T09:42:50;8.40;;;6.10;;
5742;SDS011;2896;53.500;10.020;2023-05-10T09:45:20;8.93;;;6.80;;
5742;SDS011;2896;53.500;10.020;2023-05-10T09:47:47;7.03;;;6.30;;
5742;SDS011;2896;53.500;10.020;2023-05-10T09:50:13;10.30;;;7.13;;
5742;SDS011;2896;53.500;10.020;2023-05-10T09:52:47;6.63;;;5.93;;
5742;SDS011;2896;53.500;10.020;2023-05-10T09:55:15;7.40;;;6.70;;
5742;SDS011;2896;53.500;10.020;2023-05-10T09:57:42;9.67;;;6.57;;
5742;SDS011;2896;53.500;10.020;2023-05-10T10:00:09;7.03;;;6.27;;
5742;SDS011;2896;53.500;10.020;2023-05-10T10:02:38;8.23;;;6.93;;
5742;SDS011;2896;53.500;10.020;2023-05-10T10:05:06;13.93;;;6.17;;
5742;SDS011;2896;53.500;10.020;2023-05-10T10:07:33;9.00;;;6.33;;
5742;SDS011;2896;53.500;10.020;2023-05-10T10:10:00;8.53;;;6.17;;
5742;SDS011;2896;53.500;10.020;2023-05-10T10:12:27;8.90;;;7.07;;
5742;SDS011;2896;53.500;10.020;2023-05-10T10:14:54;8.10;;;7.30;;
5742;SDS011;2896;53.500;10.020;2023-05-10T10:17:22;8.70;;;7.80;;
5742;SDS011;2896;53.500;10.020;2023-05-10T10:19:54;9.00;;;7.57;;
5742;SDS011;2896;53.500;10.020;2023-05-10T10:22:23;8.43;;;7.60;;
5742;SDS011;2896;53.500;10.020;2023-05-10T10:24:50;7.77;;;7.07;;
5742;SDS011;2896;53.500;10.020;2023-05-10T10:27:19;7.97;;;7.17;;
5742;SDS011;2896;53.500;10.020;2023-05-10T10:29:52;10.07;;;9.07;;
5742;SDS011;2896;53.500;10.020;2023-05-10T10:32:30;10.03;;;8.27;;
5742;SDS011;2896;53.500;10.020;2023-05-10T10:35:05;7.40;;;6.80;;
5742;SDS011;2896;53.500;10.020;2023-05-10T10:37:44;10.60;;;8.20;;
5742;SDS011;2896;53.500;10.020;2023-05-10T10:42:54;9.80;;;7.83;;
5742;SDS011;2896;53.500;10.020;2023-05-10T10:45:22;7.87;;;6.97;;
5742;SDS011;2896;53.500;10.020;2023-05-10T10:47:53;9.80;;;8.07;;
5742;SDS011;2896;53.500;10.020;2023-05-10T10:50:44;9.13;;;8.27;;
5742;SDS011;2896;53.500;10.020;2023-05-10T10:53:11;12.73;;;8.47;;
5742;SDS011;2896;53.500;10.020;2023-05-10T10:55:44;9.50;;;8.07;;
5742;SDS011;2896;53.500;10.020;2023-05-10T10:58:12;9.50;;;8.60;;
5742;SDS011;2896;53.500;10.020;2023-05-10T11:01:09;8.83;;;8.00;;
5742;SDS011;2896;53.500;10.020;2023-05-10T11:03:37;8.93;;;8.13;;
5742;SDS011;2896;53.500;10.020;2023-05-10T11:06:05;10.60;;;8.60;;
5742;SDS011;2896;53.500;10.020;2023-05-10T11:08:33;8.97;;;8.17;;
5742;SDS011;2896;53.500;10.020;2023-05-10T11:11:07;9.73;;;8.73;;
5742;SDS011;2896;53.500;10.020;2023-05-10T11:13:34;10.10;;;9.10;;
5742;SDS011;2896;53.500;10.020;2023-05-10T11:16:09;10.30;;;7.73;;
5742;SDS011;2896;53.500;10.020;2023-05-10T11:18:37;18.00;;;9.27;;
5742;SDS011;2896;53.500;10.020;2023-05-10T11:21:07;10.30;;;9.20;;
5742;SDS011;2896;53.500;10.020;2023-05-10T11:23:47;10.60;;;9.57;;
5742;SDS011;2896;53.500;10.020;2023-05-10T11:26:15;11.20;;;9.97;;
5742;SDS011;2896;53.500;10.020;2023-05-10T11:28:43;12.53;;;9.30;;
5742;SDS011;2896;53.500;10.020;2023-05-10T11:31:10;10.37;;;9.47;;
5742;SDS011;2896;53.500;10.020;2023-05-10T11:33:42;10.50;;;9.23;;
5742;SDS011;2896;53.500;10.020;2023-05-10T11:36:11;10.37;;;9.10;;
5742;SDS011;2896;53.500;10.020;2023-05-10T11:38:38;14.00;;;9.57;;
5742;SDS011;2896;53.500;10.020;2023-05-10T11:41:05;10.73;;;9.33;;
5742;SDS011;2896;53.500;10.020;2023-05-10T11:43:33;11.33;;;9.30;;
5742;SDS011;2896;53.500;10.020;2023-05-10T11:46:01;10.60;;;9.00;;
5742;SDS011;2896;53.500;10.020;2023-05-10T11:48:29;12.17;;;9.70;;
5742;SDS011;2896;53.500;10.020;2023-05-10T11:50:55;10.53;;;9.30;;
5742;SDS011;2896;53.500;10.020;2023-05-10T11:53:24;13.50;;;10.10;;
5742;SDS011;2896;53.500;10.020;2023-05-10T11:55:52;10.37;;;9.30;;
5742;SDS011;2896;53.500;10.020;2023-05-10T11:58:18;9.57;;;8.70;;
5742;SDS011;2896;53.500;10.020;2023-05-10T12:00:46;9.93;;;9.03;;
5742;SDS011;2896;53.500;10.020;2023-05-10T12:03:13;10.03;;;9.03;;
5742;SDS011;2896;53.500;10.020;2023-05-10T12:05:39;12.30;;;9.60;;
5742;SDS011;2896;53.500;10.020;2023-05-10T12:08:13;16.90;;;10.17;;
5742;SDS011;2896;53.500;10.020;2023-05-10T12:10:42;10.37;;;9.33;;
5742;SDS011;2896;53.500;10.020;2023-05-10T12:13:12;10.97;;;9.70;;
5742;SDS011;2896;53.500;10.020;2023-05-10T12:15:40;11.50;;;9.70;;
5742;SDS011;2896;53.500;10.020;2023-05-10T12:18:07;10.43;;;9.00;;
5742;SDS011;2896;53.500;10.020;2023-05-10T12:20:35;11.17;;;9.80;;
5742;SDS011;2896;53.500;10.020;2023-05-10T12:23:02;17.43;;;9.10;;
5742;SDS011;2896;53.500;10.020;2023-05-10T12:25:30;11.00;;;9.60;;
5742;SDS011;2896;53.500;10.020;2023-05-10T12:28:02;9.90;;;8.20;;
5742;SDS011;2896;53.500;10.020;2023-05-10T12:30:30;8.10;;;7.40;;
5742;SDS011;2896;53.500;10.020;2023-05-10T12:32:59;8.73;;;7.93;;
5742;SDS011;2896;53.500;10.020;2023-05-10T12:35:29;9.30;;;8.40;;
5742;SDS011;2896;53.500;10.020;2023-05-10T12:37:56;9.27;;;8.47;;
5742;SDS011;2896;53.500;10.020;2023-05-10T12:40:23;11.00;;;8.53;;
5742;SDS011;2896;53.500;10.020;2023-05-10T12:42:50;8.40;;;7.30;;
5742;SDS011;2896;53.500;10.020;2023-05-10T12:45:19;9.13;;;8.10;;
5742;SDS011;2896;53.500;10.020;2023-05-10T12:47:45;9.03;;;8.13;;
5742;SDS011;2896;53.500;10.020;2023-05-10T12:50:12;7.57;;;6.87;;
5742;SDS011;2896;53.500;10.020;2023-05-10T12:52:39;8.30;;;7.47;;
5742;SDS011;2896;53.500;10.020;2023-05-10T12:55:06;7.00;;;6.50;;
5742;SDS011;2896;53.500;10.020;2023-05-10T12:57:33;6.37;;;5.87;;
5742;SDS011;2896;53.500;10.020;2023-05-10T12:59:59;6.13;;;5.53;;
5742;SDS011;2896;53.500;10.020;2023-05-10T13:02:27;7.03;;;6.37;;
5742;SDS011;2896;53.500;10.020;2023-05-10T13:04:54;6.53;;;6.10;;
5742;SDS011;2896;53.500;10.020;2023-05-10T13:07:21;5.73;;;5.33;;
5742;SDS011;2896;53.500;10.020;2023-05-10T13:09:47;6.77;;;6.27;;
5742;SDS011;2896;53.500;10.020;2023-05-10T13:12:14;6.97;;;6.37;;
5742;SDS011;2896;53.500;10.020;2023-05-10T13:14:41;6.10;;;5.70;;
5742;SDS011;2896;53.500;10.020;2023-05-10T13:17:07;6.83;;;6.33;;
5742;SDS011;2896;53.500;10.020;2023-05-10T13:19:35;6.43;;;5.93;;
5742;SDS011;2896;53.500;10.020;2023-05-10T13:22:02;6.80;;;6.40;;
5742;SDS011;2896;53.500;10.020;2023-05-10T13:24:29;6.97;;;6.47;;
5742;SDS011;2896;53.500;10.020;2023-05-10T13:26:55;7.37;;;6.87;;
5742;SDS011;2896;53.500;10.020;2023-05-10T13:29:22;7.00;;;6.40;;
5742;SDS011;2896;53.500;10.020;2023-05-10T13:31:48;6.93;;;6.33;;
5742;SDS011;2896;53.500;10.020;2023-05-10T13:34:15;7.97;;;6.30;;
5742;SDS011;2896;53.500;10.020;2023-05-10T13:36:46;5.83;;;5.43;;
5742;SDS011;2896;53.500;10.020;2023-05-10T13:39:13;5.90;;;5.50;;
5742;SDS011;2896;53.500;10.020;2023-05-10T13:41:40;5.70;;;5.20;;
5742;SDS011;2896;53.500;10.020;2023-05-10T13:44:07;8.13;;;6.20;;
5742;SDS011;2896;53.500;10.020;2023-05-10T13:46:33;7.60;;;6.80;;
5742;SDS011;2896;53.500;10.020;2023-05-10T13:49:00;6.23;;;5.73;;
5742;SDS011;2896;53.500;10.020;2023-05-10T13:51:27;7.73;;;7.13;;
5742;SDS011;2896;53.500;10.020;2023-05-10T13:53:55;6.90;;;6.30;;
5742;SDS011;2896;53.500;10.020;2023-05-10T13:56:22;17.20;;;7.30;;
5742;SDS011;2896;53.500;10.020;2023-05-10T13:58:49;7.10;;;6.60;;
5742;SDS011;2896;53.500;10.020;2023-05-10T14:01:16;7.50;;;6.90;;
5742;SDS011;2896;53.500;10.020;2023-05-10T14:03:42;8.73;;;7.93;;
5742;SDS011;2896;53.500;10.020;2023-05-10T14:06:09;6.13;;;5.73;;
5742;SDS011;2896;53.500;10.020;2023-05-10T14:08:36;8.13;;;7.33;;
5742;SDS011;2896;53.500;10.020;2023-05-10T14:11:04;7.17;;;6.67;;
5742;SDS011;2896;53.500;10.020;2023-05-10T14:13:31;7.57;;;6.77;;
5742;SDS011;2896;53.500;10.020;2023-05-10T14:15:57;7.00;;;6.50;;
5742;SDS011;2896;53.500;10.020;2023-05-10T14:18:25;7.30;;;6.67;;
5742;SDS011;2896;53.500;10.020;2023-05-10T14:20:52;8.03;;;7.33;;
5742;SDS011;2896;53.500;10.020;2023-05-10T14:23:18;7.60;;;7.00;;
5742;SDS011;2896;53.500;10.020;2023-05-10T14:25:48;6.90;;;6.40;;
5742;SDS011;2896;53.500;10.020;2023-05-10T14:28:17;7.27;;;6.60;;
5742;SDS011;2896;53.500;10.020;2023-05-10T14:30:44;8.30;;;7.20;;
5742;SDS011;2896;53.500;10.020;2023-05-10T14:33:11;7.43;;;6.83;;
5742;SDS011;2896;53.500;10.020;2023-05-10T14:35:38;7.67;;;6.97;;
5742;SDS011;2896;53.500;10.020;2023-05-10T14:38:04;7.33;;;6.83;;
5742;SDS011;2896;53.500;10.020;2023-05-10T14:40:31;7.40;;;6.90;;
5742;SDS011;2896;53.500;10.020;2023-05-10T14:42:58;8.00;;;7.40;;
5742;SDS011;2896;53.500;10.020;2023-05-10T14:45:26;9.93;;;8.20;;
5742;SDS011;2896;53.500;10.020;2023-05-10T14:47:53;7.73;;;7.13;;
5742;SDS011;2896;53.500;10.020;2023-05-10T14:50:19;7.10;;;6.60;;
5742;SDS011;2896;53.500;10.020;2023-05-10T14:52:46;7.63;;;6.90;;
5742;SDS011;2896;53.500;10.020;2023-05-10T14:55:12;12.93;;;7.30;;
5742;SDS011;2896;53.500;10.020;2023-05-10T14:57:39;7.40;;;6.80;;
5742;SDS011;2896;53.500;10.020;2023-05-10T15:00:06;5.97;;;5.63;;
5742;SDS011;2896;53.500;10.020;2023-05-10T15:02:35;7.80;;;7.20;;
5742;SDS011;2896;53.500;10.020;2023-05-10T15:05:02;8.10;;;7.50;;
5742;SDS011;2896;53.500;10.020;2023-05-10T15:07:29;8.13;;;7.37;;
5742;SDS011;2896;53.500;10.020;2023-05-10T15:09:56;7.70;;;7.10;;
5742;SDS011;2896;53.500;10.020;2023-05-10T15:12:22;6.80;;;6.37;;